Terminal Aerodrome Forecast
Issued by NWS

Home | Current Version | Previous Version | Text Only | Print | Product List | Glossary On
Versions: 1 2 3 4 5 6 7 8 9 10 11 12 13 14 15
000
FTAK31 PANC 272340
TAFADL
TAF
PADL 272340Z 2800/2824 17007KT P6SM FEW050 SCT200
     FM281200 VRB04KT P6SM -RA OVC025
     FM281600 22015KT 2SM -RA BR SCT005 OVC012=

USA.gov is the U.S. government's official web portal to all federal, state and local government web resources and services.